Salacak — 3FBM4 — position and weather

sailwx.info

Track history (hours):
 
Tides and Currents Weather Stations Pressure Air Temp Water Temp Dewpoint Dewpoint Depression Visibility Wind Speed Wind Dir Waves Ship Positions

Salacak

Last reported at 2014-Aug-29 17:13 UTC. Time now 2014-Aug-29 18:25 UTC.
Position N 41°22' E 029°17'.

Length 126 m; draft 8.9 m.

Type: Cargo ship. MMSI: 373532000.

Date/timePositionNaut miles runAvg speedWind from/ knotsBaromVisibWave heightAir tempDewpointWater temp
2014-Aug-29 17:13N 41°22' E 029°17'812.4
2014-Aug-29 16:33N 41°24' E 029°28'34511.4
2014-Aug-28 10:24N 43°60' E 036°26'1312.0
2014-Aug-28 09:21N 44°07' E 036°41'3412.1
2014-Aug-28 06:33N 44°20' E 037°25'1212.6
2014-Aug-28 05:33N 44°29' E 037°37'1312.7
2014-Aug-28 04:33N 44°38' E 037°49'6 5.9
2014-Aug-28 03:33N 44°44' E 037°47'0 0.0
2014-Aug-28 02:32N 44°44' E 037°47'0 0.0
2014-Aug-28 01:32N 44°44' E 037°47'0 0.0
2014-Aug-28 00:32N 44°44' E 037°47'0 0.0
2014-Aug-27 23:32N 44°44' E 037°47'0 0.0
2014-Aug-27 22:32N 44°44' E 037°47'0 0.0
2014-Aug-27 21:32N 44°44' E 037°47'0 0.0
2014-Aug-27 20:32N 44°44' E 037°47'0 0.0
2014-Aug-27 19:32N 44°44' E 037°47'0 0.0
2014-Aug-27 18:32N 44°44' E 037°47'0 0.0
2014-Aug-27 17:32N 44°44' E 037°47'0 0.0
2014-Aug-27 16:29N 44°44' E 037°47'0 0.0
2014-Aug-27 15:32N 44°44' E 037°47'0 0.0
2014-Aug-27 14:32N 44°44' E 037°47'0 0.0
2014-Aug-27 13:28N 44°44' E 037°47'0 0.0
2014-Aug-27 12:31N 44°44' E 037°47'0 0.0
2014-Aug-27 11:31N 44°44' E 037°47'0 0.0
2014-Aug-27 10:31N 44°44' E 037°47'0 0.0
2014-Aug-27 09:31N 44°44' E 037°47'0 0.0
2014-Aug-27 08:31N 44°44' E 037°47'0 0.0
2014-Aug-27 07:31N 44°44' E 037°47'0 0.0
2014-Aug-27 06:31N 44°44' E 037°47'0 0.0
2014-Aug-27 05:31N 44°44' E 037°47'0 0.0
2014-Aug-27 04:31N 44°44' E 037°47'0 0.0
2014-Aug-27 03:31N 44°44' E 037°47'0 0.0
2014-Aug-27 02:31N 44°44' E 037°47'0 0.0
2014-Aug-27 01:31N 44°44' E 037°47'0 0.0
2014-Aug-27 00:31N 44°44' E 037°47'0 0.0
2014-Aug-26 23:31N 44°44' E 037°47'0 0.0
2014-Aug-26 22:28N 44°44' E 037°47'0 0.0
2014-Aug-26 21:31N 44°44' E 037°47'0 0.0
2014-Aug-26 20:31N 44°44' E 037°47'0 0.0
2014-Aug-26 19:31N 44°44' E 037°47'0 0.0
2014-Aug-26 18:31N 44°44' E 037°47'0 0.0
2014-Aug-26 17:31N 44°44' E 037°47'0 0.5
2014-Aug-26 16:34N 44°44' E 037°48'7 6.7
2014-Aug-26 15:33N 44°37' E 037°51'6 6.5
2014-Aug-26 14:34N 44°32' E 037°47'1211.7
2014-Aug-26 13:34N 44°22' E 037°38'  
2014-Aug-24 07:05N 41°27' E 029°41'4011.4
2014-Aug-24 03:33N 41°01' E 028°60'9 9.2
2014-Aug-24 02:33N 40°52' E 029°02'8 7.4
2014-Aug-24 01:31N 40°52' E 029°12'0 0.1
2014-Aug-24 00:32N 40°52' E 029°12'0 0.0
2014-Aug-23 23:26N 40°52' E 029°12'0 0.0
2014-Aug-23 22:32N 40°52' E 029°12'0 0.0
2014-Aug-23 21:32N 40°52' E 029°12'0 0.0
2014-Aug-23 20:32N 40°52' E 029°12'0 0.0
2014-Aug-23 19:32N 40°52' E 029°12'19 0.4
2014-Aug-21 21:32N 40°46' E 029°36'7 6.8
2014-Aug-21 20:30N 40°46' E 029°26'0 0.1
2014-Aug-21 19:29N 40°46' E 029°26'0 0.0
2014-Aug-21 18:23N 40°46' E 029°26'0 0.0
2014-Aug-21 11:29N 40°46' E 029°26'0 0.0
2014-Aug-21 06:10N 40°46' E 029°26'0 0.0
2014-Aug-21 05:28N 40°46' E 029°26'0 0.0
2014-Aug-21 03:28N 40°46' E 029°26'0 0.0
2014-Aug-21 02:28N 40°46' E 029°26'0 0.0
2014-Aug-21 01:28N 40°46' E 029°26'0 0.0
2014-Aug-21 00:22N 40°46' E 029°26'0 0.0
2014-Aug-20 23:10N 40°46' E 029°26'0 0.0
2014-Aug-20 21:04N 40°46' E 029°26'0 0.0
2014-Aug-20 18:22N 40°46' E 029°26'0 0.0
2014-Aug-20 17:18N 40°46' E 029°26'3 3.4
2014-Aug-20 16:30N 40°45' E 029°23'1111.4
2014-Aug-20 15:33N 40°47' E 029°09'1211.8
2014-Aug-20 14:30N 40°55' E 028°56'  
Track history (hours):
 
Tides and Currents Weather Stations Pressure Air Temp Water Temp Dewpoint Dewpoint Depression Visibility Wind Speed Wind Dir Waves Ship Positions

Salacak

Last reported at 2014-Aug-29 17:13 UTC. Time now 2014-Aug-29 18:25 UTC.
Position N 41°22' E 029°17'.

Length 126 m; draft 8.9 m.

Type: Cargo ship. MMSI: 373532000.

Date/timePositionNaut miles runAvg speedWind from/ knotsBaromVisibWave heightAir tempDewpointWater temp
2014-Aug-29 17:13N 41°22' E 029°17'812.4
2014-Aug-29 16:33N 41°24' E 029°28'34511.4
2014-Aug-28 10:24N 43°60' E 036°26'1312.0
2014-Aug-28 09:21N 44°07' E 036°41'3412.1
2014-Aug-28 06:33N 44°20' E 037°25'1212.6
2014-Aug-28 05:33N 44°29' E 037°37'1312.7
2014-Aug-28 04:33N 44°38' E 037°49'6 5.9
2014-Aug-28 03:33N 44°44' E 037°47'0 0.0
2014-Aug-28 02:32N 44°44' E 037°47'0 0.0
2014-Aug-28 01:32N 44°44' E 037°47'0 0.0
2014-Aug-28 00:32N 44°44' E 037°47'0 0.0
2014-Aug-27 23:32N 44°44' E 037°47'0 0.0
2014-Aug-27 22:32N 44°44' E 037°47'0 0.0
2014-Aug-27 21:32N 44°44' E 037°47'0 0.0
2014-Aug-27 20:32N 44°44' E 037°47'0 0.0
2014-Aug-27 19:32N 44°44' E 037°47'0 0.0
2014-Aug-27 18:32N 44°44' E 037°47'0 0.0
2014-Aug-27 17:32N 44°44' E 037°47'0 0.0
2014-Aug-27 16:29N 44°44' E 037°47'0 0.0
2014-Aug-27 15:32N 44°44' E 037°47'0 0.0
2014-Aug-27 14:32N 44°44' E 037°47'0 0.0
2014-Aug-27 13:28N 44°44' E 037°47'0 0.0
2014-Aug-27 12:31N 44°44' E 037°47'0 0.0
2014-Aug-27 11:31N 44°44' E 037°47'0 0.0
2014-Aug-27 10:31N 44°44' E 037°47'0 0.0
2014-Aug-27 09:31N 44°44' E 037°47'0 0.0
2014-Aug-27 08:31N 44°44' E 037°47'0 0.0
2014-Aug-27 07:31N 44°44' E 037°47'0 0.0
2014-Aug-27 06:31N 44°44' E 037°47'0 0.0
2014-Aug-27 05:31N 44°44' E 037°47'0 0.0
2014-Aug-27 04:31N 44°44' E 037°47'0 0.0
2014-Aug-27 03:31N 44°44' E 037°47'0 0.0
2014-Aug-27 02:31N 44°44' E 037°47'0 0.0
2014-Aug-27 01:31N 44°44' E 037°47'0 0.0
2014-Aug-27 00:31N 44°44' E 037°47'0 0.0
2014-Aug-26 23:31N 44°44' E 037°47'0 0.0
2014-Aug-26 22:28N 44°44' E 037°47'0 0.0
2014-Aug-26 21:31N 44°44' E 037°47'0 0.0
2014-Aug-26 20:31N 44°44' E 037°47'0 0.0
2014-Aug-26 19:31N 44°44' E 037°47'0 0.0
2014-Aug-26 18:31N 44°44' E 037°47'0 0.0
2014-Aug-26 17:31N 44°44' E 037°47'0 0.5
2014-Aug-26 16:34N 44°44' E 037°48'7 6.7
2014-Aug-26 15:33N 44°37' E 037°51'6 6.5
2014-Aug-26 14:34N 44°32' E 037°47'1211.7
2014-Aug-26 13:34N 44°22' E 037°38'  
2014-Aug-24 07:05N 41°27' E 029°41'4011.4
2014-Aug-24 03:33N 41°01' E 028°60'9 9.2
2014-Aug-24 02:33N 40°52' E 029°02'8 7.4
2014-Aug-24 01:31N 40°52' E 029°12'0 0.1
2014-Aug-24 00:32N 40°52' E 029°12'0 0.0
2014-Aug-23 23:26N 40°52' E 029°12'0 0.0
2014-Aug-23 22:32N 40°52' E 029°12'0 0.0
2014-Aug-23 21:32N 40°52' E 029°12'0 0.0
2014-Aug-23 20:32N 40°52' E 029°12'0 0.0
2014-Aug-23 19:32N 40°52' E 029°12'19 0.4
2014-Aug-21 21:32N 40°46' E 029°36'7 6.8
2014-Aug-21 20:30N 40°46' E 029°26'0 0.1
2014-Aug-21 19:29N 40°46' E 029°26'0 0.0
2014-Aug-21 18:23N 40°46' E 029°26'0 0.0
2014-Aug-21 11:29N 40°46' E 029°26'0 0.0
2014-Aug-21 06:10N 40°46' E 029°26'0 0.0
2014-Aug-21 05:28N 40°46' E 029°26'0 0.0
2014-Aug-21 03:28N 40°46' E 029°26'0 0.0
2014-Aug-21 02:28N 40°46' E 029°26'0 0.0
2014-Aug-21 01:28N 40°46' E 029°26'0 0.0
2014-Aug-21 00:22N 40°46' E 029°26'0 0.0
2014-Aug-20 23:10N 40°46' E 029°26'0 0.0
2014-Aug-20 21:04N 40°46' E 029°26'0 0.0
2014-Aug-20 18:22N 40°46' E 029°26'0 0.0
2014-Aug-20 17:18N 40°46' E 029°26'3 3.4
2014-Aug-20 16:30N 40°45' E 029°23'1111.4
2014-Aug-20 15:33N 40°47' E 029°09'1211.8
2014-Aug-20 14:30N 40°55' E 028°56'  

Dump ship's entire track history